sensor_id;sensor_type;location;lat;lon;timestamp;P1;durP1;ratioP1;P2;durP2;ratioP2
39322;SDS011;25036;53.638;10.134;2024-02-21T00:00:15;16.80;;;9.90;;
39322;SDS011;25036;53.638;10.134;2024-02-21T00:01:15;18.08;;;10.15;;
39322;SDS011;25036;53.638;10.134;2024-02-21T00:02:16;16.75;;;9.45;;
39322;SDS011;25036;53.638;10.134;2024-02-21T00:03:16;14.98;;;9.93;;
39322;SDS011;25036;53.638;10.134;2024-02-21T00:04:16;16.97;;;10.00;;
39322;SDS011;25036;53.638;10.134;2024-02-21T00:05:16;16.13;;;9.13;;
39322;SDS011;25036;53.638;10.134;2024-02-21T00:06:17;13.53;;;9.20;;
39322;SDS011;25036;53.638;10.134;2024-02-21T00:07:17;18.35;;;9.70;;
39322;SDS011;25036;53.638;10.134;2024-02-21T00:08:17;16.50;;;9.40;;
39322;SDS011;25036;53.638;10.134;2024-02-21T00:09:17;19.50;;;9.43;;
39322;SDS011;25036;53.638;10.134;2024-02-21T00:10:19;14.68;;;9.95;;
39322;SDS011;25036;53.638;10.134;2024-02-21T00:11:19;17.97;;;9.97;;
39322;SDS011;25036;53.638;10.134;2024-02-21T00:12:19;18.10;;;10.20;;
39322;SDS011;25036;53.638;10.134;2024-02-21T00:13:19;15.68;;;10.38;;
39322;SDS011;25036;53.638;10.134;2024-02-21T00:14:19;14.50;;;8.80;;
39322;SDS011;25036;53.638;10.134;2024-02-21T00:15:20;14.90;;;10.00;;
39322;SDS011;25036;53.638;10.134;2024-02-21T00:16:21;18.50;;;10.75;;
39322;SDS011;25036;53.638;10.134;2024-02-21T00:17:21;23.33;;;10.47;;
39322;SDS011;25036;53.638;10.134;2024-02-21T00:18:21;16.20;;;9.43;;
39322;SDS011;25036;53.638;10.134;2024-02-21T00:19:21;16.43;;;9.67;;
39322;SDS011;25036;53.638;10.134;2024-02-21T00:20:21;18.73;;;10.90;;
39322;SDS011;25036;53.638;10.134;2024-02-21T00:21:21;15.30;;;9.63;;
39322;SDS011;25036;53.638;10.134;2024-02-21T00:22:22;16.77;;;10.57;;
39322;SDS011;25036;53.638;10.134;2024-02-21T00:23:22;17.13;;;10.07;;
39322;SDS011;25036;53.638;10.134;2024-02-21T00:24:22;17.23;;;10.00;;
39322;SDS011;25036;53.638;10.134;2024-02-21T00:25:22;17.07;;;9.70;;
39322;SDS011;25036;53.638;10.134;2024-02-21T00:26:22;16.58;;;9.32;;
39322;SDS011;25036;53.638;10.134;2024-02-21T00:27:22;15.80;;;10.52;;
39322;SDS011;25036;53.638;10.134;2024-02-21T00:28:22;19.20;;;10.10;;
39322;SDS011;25036;53.638;10.134;2024-02-21T00:29:23;16.80;;;9.67;;
39322;SDS011;25036;53.638;10.134;2024-02-21T00:30:23;18.77;;;10.90;;
39322;SDS011;25036;53.638;10.134;2024-02-21T00:31:23;15.65;;;10.30;;
39322;SDS011;25036;53.638;10.134;2024-02-21T00:32:23;19.52;;;10.93;;
39322;SDS011;25036;53.638;10.134;2024-02-21T00:33:23;20.85;;;10.05;;
39322;SDS011;25036;53.638;10.134;2024-02-21T00:34:23;19.87;;;10.47;;
39322;SDS011;25036;53.638;10.134;2024-02-21T00:35:24;14.88;;;9.32;;
39322;SDS011;25036;53.638;10.134;2024-02-21T00:36:24;15.40;;;9.52;;
39322;SDS011;25036;53.638;10.134;2024-02-21T00:37:24;13.73;;;9.80;;
39322;SDS011;25036;53.638;10.134;2024-02-21T00:38:24;16.53;;;10.57;;
39322;SDS011;25036;53.638;10.134;2024-02-21T00:39:25;17.10;;;9.97;;
39322;SDS011;25036;53.638;10.134;2024-02-21T00:40:25;18.20;;;11.17;;
39322;SDS011;25036;53.638;10.134;2024-02-21T00:41:25;17.10;;;10.10;;
39322;SDS011;25036;53.638;10.134;2024-02-21T00:42:25;15.37;;;10.33;;
39322;SDS011;25036;53.638;10.134;2024-02-21T00:43:25;18.02;;;10.70;;
39322;SDS011;25036;53.638;10.134;2024-02-21T00:44:25;16.60;;;10.40;;
39322;SDS011;25036;53.638;10.134;2024-02-21T00:45:25;18.40;;;10.93;;
39322;SDS011;25036;53.638;10.134;2024-02-21T00:46:25;16.47;;;10.03;;
39322;SDS011;25036;53.638;10.134;2024-02-21T00:47:26;17.93;;;10.13;;
39322;SDS011;25036;53.638;10.134;2024-02-21T00:48:26;16.95;;;10.15;;
39322;SDS011;25036;53.638;10.134;2024-02-21T00:49:26;22.40;;;10.98;;
39322;SDS011;25036;53.638;10.134;2024-02-21T00:50:26;20.05;;;10.27;;
39322;SDS011;25036;53.638;10.134;2024-02-21T00:51:26;18.73;;;9.27;;
39322;SDS011;25036;53.638;10.134;2024-02-21T00:52:27;18.08;;;10.40;;
39322;SDS011;25036;53.638;10.134;2024-02-21T00:53:27;15.27;;;9.90;;
39322;SDS011;25036;53.638;10.134;2024-02-21T00:54:27;17.63;;;10.07;;
39322;SDS011;25036;53.638;10.134;2024-02-21T00:55:27;20.30;;;10.33;;
39322;SDS011;25036;53.638;10.134;2024-02-21T00:56:27;19.63;;;11.05;;
39322;SDS011;25036;53.638;10.134;2024-02-21T00:57:27;15.80;;;10.63;;
39322;SDS011;25036;53.638;10.134;2024-02-21T00:58:28;15.43;;;10.07;;
39322;SDS011;25036;53.638;10.134;2024-02-21T00:59:28;16.05;;;10.13;;
39322;SDS011;25036;53.638;10.134;2024-02-21T01:00:28;18.27;;;10.57;;
39322;SDS011;25036;53.638;10.134;2024-02-21T01:01:28;14.90;;;9.93;;
39322;SDS011;25036;53.638;10.134;2024-02-21T01:02:28;15.57;;;10.30;;
39322;SDS011;25036;53.638;10.134;2024-02-21T01:03:31;17.63;;;11.27;;
39322;SDS011;25036;53.638;10.134;2024-02-21T01:04:32;16.27;;;10.10;;
39322;SDS011;25036;53.638;10.134;2024-02-21T01:05:32;18.52;;;10.15;;
39322;SDS011;25036;53.638;10.134;2024-02-21T01:06:32;18.47;;;10.70;;
39322;SDS011;25036;53.638;10.134;2024-02-21T01:07:32;17.40;;;10.80;;
39322;SDS011;25036;53.638;10.134;2024-02-21T01:08:33;18.65;;;9.68;;
39322;SDS011;25036;53.638;10.134;2024-02-21T01:09:33;16.07;;;10.20;;
39322;SDS011;25036;53.638;10.134;2024-02-21T01:10:33;17.90;;;10.23;;
39322;SDS011;25036;53.638;10.134;2024-02-21T01:11:33;16.40;;;10.60;;
39322;SDS011;25036;53.638;10.134;2024-02-21T01:12:33;15.10;;;10.50;;
39322;SDS011;25036;53.638;10.134;2024-02-21T01:13:33;19.00;;;11.07;;
39322;SDS011;25036;53.638;10.134;2024-02-21T01:14:34;14.33;;;10.53;;
39322;SDS011;25036;53.638;10.134;2024-02-21T01:15:34;16.20;;;10.90;;
39322;SDS011;25036;53.638;10.134;2024-02-21T01:16:34;19.77;;;10.30;;
39322;SDS011;25036;53.638;10.134;2024-02-21T01:17:34;19.07;;;11.13;;
39322;SDS011;25036;53.638;10.134;2024-02-21T01:18:34;15.57;;;9.87;;
39322;SDS011;25036;53.638;10.134;2024-02-21T01:19:36;15.95;;;10.63;;
39322;SDS011;25036;53.638;10.134;2024-02-21T01:20:37;19.65;;;10.27;;
39322;SDS011;25036;53.638;10.134;2024-02-21T01:21:37;18.70;;;10.53;;
39322;SDS011;25036;53.638;10.134;2024-02-21T01:22:37;17.43;;;10.43;;
39322;SDS011;25036;53.638;10.134;2024-02-21T01:23:37;15.85;;;9.45;;
39322;SDS011;25036;53.638;10.134;2024-02-21T01:24:37;18.27;;;9.60;;
39322;SDS011;25036;53.638;10.134;2024-02-21T01:25:38;16.87;;;9.93;;
39322;SDS011;25036;53.638;10.134;2024-02-21T01:26:38;16.77;;;10.67;;
39322;SDS011;25036;53.638;10.134;2024-02-21T01:27:38;17.23;;;11.27;;
39322;SDS011;25036;53.638;10.134;2024-02-21T01:28:38;19.10;;;11.30;;
39322;SDS011;25036;53.638;10.134;2024-02-21T01:29:38;16.45;;;10.38;;
39322;SDS011;25036;53.638;10.134;2024-02-21T01:30:38;15.00;;;10.73;;
39322;SDS011;25036;53.638;10.134;2024-02-21T01:31:38;16.30;;;10.57;;
39322;SDS011;25036;53.638;10.134;2024-02-21T01:32:38;17.70;;;10.43;;
39322;SDS011;25036;53.638;10.134;2024-02-21T01:33:39;16.83;;;9.70;;
39322;SDS011;25036;53.638;10.134;2024-02-21T01:34:39;17.00;;;10.20;;
39322;SDS011;25036;53.638;10.134;2024-02-21T01:35:39;18.00;;;10.17;;
39322;SDS011;25036;53.638;10.134;2024-02-21T01:36:39;14.30;;;9.87;;
39322;SDS011;25036;53.638;10.134;2024-02-21T01:37:39;17.30;;;11.03;;
39322;SDS011;25036;53.638;10.134;2024-02-21T01:38:39;16.57;;;9.80;;
39322;SDS011;25036;53.638;10.134;2024-02-21T01:39:39;17.70;;;10.73;;
39322;SDS011;25036;53.638;10.134;2024-02-21T01:40:39;15.20;;;9.27;;
39322;SDS011;25036;53.638;10.134;2024-02-21T01:41:40;18.20;;;10.23;;
39322;SDS011;25036;53.638;10.134;2024-02-21T01:42:40;15.17;;;9.53;;
39322;SDS011;25036;53.638;10.134;2024-02-21T01:43:43;15.50;;;9.95;;
39322;SDS011;25036;53.638;10.134;2024-02-21T01:44:43;16.00;;;9.77;;
39322;SDS011;25036;53.638;10.134;2024-02-21T01:45:45;14.90;;;9.50;;
39322;SDS011;25036;53.638;10.134;2024-02-21T01:46:46;15.10;;;10.10;;
39322;SDS011;25036;53.638;10.134;2024-02-21T01:47:47;20.55;;;10.18;;
39322;SDS011;25036;53.638;10.134;2024-02-21T01:48:48;14.45;;;9.82;;
39322;SDS011;25036;53.638;10.134;2024-02-21T01:49:48;11.45;;;9.45;;
39322;SDS011;25036;53.638;10.134;2024-02-21T01:50:49;12.88;;;10.10;;
39322;SDS011;25036;53.638;10.134;2024-02-21T01:51:49;14.27;;;9.02;;
39322;SDS011;25036;53.638;10.134;2024-02-21T01:52:50;14.88;;;9.52;;
39322;SDS011;25036;53.638;10.134;2024-02-21T01:53:51;17.70;;;9.23;;
39322;SDS011;25036;53.638;10.134;2024-02-21T01:54:51;13.98;;;8.82;;
39322;SDS011;25036;53.638;10.134;2024-02-21T01:55:51;15.07;;;9.75;;
39322;SDS011;25036;53.638;10.134;2024-02-21T01:56:52;13.63;;;8.80;;
39322;SDS011;25036;53.638;10.134;2024-02-21T01:57:52;15.03;;;9.97;;
39322;SDS011;25036;53.638;10.134;2024-02-21T01:58:53;14.02;;;9.75;;
39322;SDS011;25036;53.638;10.134;2024-02-21T01:59:53;18.60;;;10.43;;
39322;SDS011;25036;53.638;10.134;2024-02-21T02:00:53;15.48;;;9.02;;
39322;SDS011;25036;53.638;10.134;2024-02-21T02:01:56;14.15;;;9.45;;
39322;SDS011;25036;53.638;10.134;2024-02-21T02:02:57;13.13;;;8.45;;
39322;SDS011;25036;53.638;10.134;2024-02-21T02:03:57;13.40;;;9.15;;
39322;SDS011;25036;53.638;10.134;2024-02-21T02:04:59;13.13;;;9.52;;
39322;SDS011;25036;53.638;10.134;2024-02-21T02:05:59;11.32;;;9.35;;
39322;SDS011;25036;53.638;10.134;2024-02-21T02:06:59;16.27;;;10.35;;
39322;SDS011;25036;53.638;10.134;2024-02-21T02:08:00;14.88;;;9.10;;
39322;SDS011;25036;53.638;10.134;2024-02-21T02:09:00;13.40;;;8.60;;
39322;SDS011;25036;53.638;10.134;2024-02-21T02:10:00;13.32;;;9.40;;
39322;SDS011;25036;53.638;10.134;2024-02-21T02:11:00;11.88;;;9.25;;
39322;SDS011;25036;53.638;10.134;2024-02-21T02:12:01;12.35;;;9.10;;
39322;SDS011;25036;53.638;10.134;2024-02-21T02:13:01;12.05;;;8.70;;
39322;SDS011;25036;53.638;10.134;2024-02-21T02:14:01;13.03;;;9.40;;
39322;SDS011;25036;53.638;10.134;2024-02-21T02:15:02;12.90;;;9.40;;
39322;SDS011;25036;53.638;10.134;2024-02-21T02:16:04;13.40;;;10.25;;
39322;SDS011;25036;53.638;10.134;2024-02-21T02:17:05;12.90;;;9.10;;
39322;SDS011;25036;53.638;10.134;2024-02-21T02:18:05;13.52;;;9.48;;
39322;SDS011;25036;53.638;10.134;2024-02-21T02:19:05;10.00;;;9.00;;
39322;SDS011;25036;53.638;10.134;2024-02-21T02:20:05;13.17;;;9.60;;
39322;SDS011;25036;53.638;10.134;2024-02-21T02:22:22;14.18;;;9.48;;
39322;SDS011;25036;53.638;10.134;2024-02-21T02:23:29;12.27;;;8.93;;
39322;SDS011;25036;53.638;10.134;2024-02-21T02:24:29;12.85;;;9.57;;
39322;SDS011;25036;53.638;10.134;2024-02-21T02:25:30;14.00;;;10.68;;
39322;SDS011;25036;53.638;10.134;2024-02-21T02:26:30;14.35;;;9.80;;
39322;SDS011;25036;53.638;10.134;2024-02-21T02:27:30;14.53;;;10.00;;
39322;SDS011;25036;53.638;10.134;2024-02-21T02:28:31;14.57;;;10.57;;
39322;SDS011;25036;53.638;10.134;2024-02-21T02:29:32;14.52;;;10.02;;
39322;SDS011;25036;53.638;10.134;2024-02-21T02:30:32;14.63;;;10.70;;
39322;SDS011;25036;53.638;10.134;2024-02-21T02:31:34;16.08;;;11.25;;
39322;SDS011;25036;53.638;10.134;2024-02-21T02:32:35;11.30;;;9.93;;
39322;SDS011;25036;53.638;10.134;2024-02-21T02:33:35;14.73;;;11.40;;
39322;SDS011;25036;53.638;10.134;2024-02-21T02:34:36;15.03;;;11.33;;
39322;SDS011;25036;53.638;10.134;2024-02-21T02:35:36;14.37;;;11.43;;
39322;SDS011;25036;53.638;10.134;2024-02-21T02:36:36;13.95;;;10.35;;
39322;SDS011;25036;53.638;10.134;2024-02-21T02:37:36;13.93;;;11.07;;
39322;SDS011;25036;53.638;10.134;2024-02-21T02:38:38;15.63;;;11.30;;
39322;SDS011;25036;53.638;10.134;2024-02-21T02:39:38;16.60;;;11.25;;
39322;SDS011;25036;53.638;10.134;2024-02-21T02:40:38;14.50;;;10.90;;
39322;SDS011;25036;53.638;10.134;2024-02-21T02:41:39;12.38;;;10.65;;
39322;SDS011;25036;53.638;10.134;2024-02-21T02:42:39;14.77;;;11.93;;
39322;SDS011;25036;53.638;10.134;2024-02-21T02:43:39;15.77;;;10.95;;
39322;SDS011;25036;53.638;10.134;2024-02-21T02:44:40;16.57;;;11.93;;
39322;SDS011;25036;53.638;10.134;2024-02-21T02:45:40;15.35;;;11.23;;
39322;SDS011;25036;53.638;10.134;2024-02-21T02:46:40;13.77;;;11.07;;
39322;SDS011;25036;53.638;10.134;2024-02-21T02:47:41;17.48;;;12.32;;
39322;SDS011;25036;53.638;10.134;2024-02-21T02:48:41;14.52;;;10.68;;
39322;SDS011;25036;53.638;10.134;2024-02-21T02:49:41;18.42;;;11.70;;
39322;SDS011;25036;53.638;10.134;2024-02-21T02:50:41;16.60;;;12.40;;
39322;SDS011;25036;53.638;10.134;2024-02-21T02:51:42;16.80;;;12.18;;
39322;SDS011;25036;53.638;10.134;2024-02-21T02:52:43;16.00;;;11.63;;
39322;SDS011;25036;53.638;10.134;2024-02-21T02:53:43;16.92;;;12.57;;
39322;SDS011;25036;53.638;10.134;2024-02-21T02:54:44;16.40;;;12.77;;
39322;SDS011;25036;53.638;10.134;2024-02-21T02:55:44;14.77;;;11.60;;
39322;SDS011;25036;53.638;10.134;2024-02-21T02:56:44;19.47;;;13.13;;
39322;SDS011;25036;53.638;10.134;2024-02-21T02:57:45;15.47;;;11.70;;
39322;SDS011;25036;53.638;10.134;2024-02-21T02:58:45;17.40;;;12.10;;
39322;SDS011;25036;53.638;10.134;2024-02-21T02:59:49;14.27;;;12.23;;
39322;SDS011;25036;53.638;10.134;2024-02-21T03:00:49;14.82;;;11.70;;
39322;SDS011;25036;53.638;10.134;2024-02-21T03:01:49;18.70;;;12.43;;
39322;SDS011;25036;53.638;10.134;2024-02-21T03:02:50;14.73;;;13.13;;
39322;SDS011;25036;53.638;10.134;2024-02-21T03:03:50;17.80;;;13.05;;
39322;SDS011;25036;53.638;10.134;2024-02-21T03:04:50;18.50;;;12.50;;
39322;SDS011;25036;53.638;10.134;2024-02-21T03:05:50;18.80;;;12.40;;
39322;SDS011;25036;53.638;10.134;2024-02-21T03:06:50;17.53;;;12.23;;
39322;SDS011;25036;53.638;10.134;2024-02-21T03:07:50;18.33;;;12.33;;
39322;SDS011;25036;53.638;10.134;2024-02-21T03:08:51;19.73;;;13.07;;
39322;SDS011;25036;53.638;10.134;2024-02-21T03:09:54;18.90;;;12.63;;
39322;SDS011;25036;53.638;10.134;2024-02-21T03:10:54;16.52;;;12.15;;
39322;SDS011;25036;53.638;10.134;2024-02-21T03:11:54;15.70;;;13.00;;
39322;SDS011;25036;53.638;10.134;2024-02-21T03:12:57;21.80;;;11.77;;
39322;SDS011;25036;53.638;10.134;2024-02-21T03:13:57;19.77;;;12.47;;
39322;SDS011;25036;53.638;10.134;2024-02-21T03:14:57;15.97;;;12.27;;
39322;SDS011;25036;53.638;10.134;2024-02-21T03:15:57;16.65;;;13.07;;
39322;SDS011;25036;53.638;10.134;2024-02-21T03:16:58;18.10;;;12.83;;
39322;SDS011;25036;53.638;10.134;2024-02-21T03:17:58;18.98;;;13.80;;
39322;SDS011;25036;53.638;10.134;2024-02-21T03:18:59;16.73;;;12.20;;
39322;SDS011;25036;53.638;10.134;2024-02-21T03:19:59;19.63;;;12.82;;
39322;SDS011;25036;53.638;10.134;2024-02-21T03:20:59;20.23;;;12.80;;
39322;SDS011;25036;53.638;10.134;2024-02-21T03:22:00;20.60;;;12.07;;
39322;SDS011;25036;53.638;10.134;2024-02-21T03:23:00;15.03;;;11.67;;
39322;SDS011;25036;53.638;10.134;2024-02-21T03:24:00;15.23;;;11.48;;
39322;SDS011;25036;53.638;10.134;2024-02-21T03:25:00;17.43;;;12.00;;
39322;SDS011;25036;53.638;10.134;2024-02-21T03:26:00;16.90;;;11.73;;
39322;SDS011;25036;53.638;10.134;2024-02-21T03:27:01;14.17;;;12.10;;
39322;SDS011;25036;53.638;10.134;2024-02-21T03:28:01;20.63;;;12.75;;
39322;SDS011;25036;53.638;10.134;2024-02-21T03:29:01;19.15;;;12.65;;
39322;SDS011;25036;53.638;10.134;2024-02-21T03:30:02;19.33;;;13.00;;
39322;SDS011;25036;53.638;10.134;2024-02-21T03:31:04;19.33;;;12.07;;
39322;SDS011;25036;53.638;10.134;2024-02-21T03:32:04;18.53;;;12.07;;
39322;SDS011;25036;53.638;10.134;2024-02-21T03:33:04;17.80;;;12.00;;
39322;SDS011;25036;53.638;10.134;2024-02-21T03:34:05;18.00;;;12.65;;
39322;SDS011;25036;53.638;10.134;2024-02-21T03:35:05;16.38;;;12.02;;
39322;SDS011;25036;53.638;10.134;2024-02-21T03:36:05;17.48;;;11.90;;
39322;SDS011;25036;53.638;10.134;2024-02-21T03:37:06;19.02;;;11.63;;
39322;SDS011;25036;53.638;10.134;2024-02-21T03:38:06;15.98;;;12.13;;
39322;SDS011;25036;53.638;10.134;2024-02-21T03:39:06;18.33;;;12.53;;
39322;SDS011;25036;53.638;10.134;2024-02-21T03:40:10;19.05;;;12.43;;
39322;SDS011;25036;53.638;10.134;2024-02-21T03:41:10;17.30;;;12.18;;
39322;SDS011;25036;53.638;10.134;2024-02-21T03:42:11;18.80;;;12.67;;
39322;SDS011;25036;53.638;10.134;2024-02-21T03:43:11;16.25;;;11.27;;
39322;SDS011;25036;53.638;10.134;2024-02-21T03:44:11;15.20;;;11.97;;
39322;SDS011;25036;53.638;10.134;2024-02-21T03:45:11;18.57;;;12.20;;
39322;SDS011;25036;53.638;10.134;2024-02-21T03:46:11;19.43;;;11.13;;
39322;SDS011;25036;53.638;10.134;2024-02-21T03:47:12;17.92;;;11.75;;
39322;SDS011;25036;53.638;10.134;2024-02-21T03:48:12;21.23;;;11.80;;
39322;SDS011;25036;53.638;10.134;2024-02-21T03:49:12;18.13;;;11.60;;
39322;SDS011;25036;53.638;10.134;2024-02-21T03:50:12;18.67;;;13.50;;
39322;SDS011;25036;53.638;10.134;2024-02-21T03:51:12;13.57;;;10.57;;
39322;SDS011;25036;53.638;10.134;2024-02-21T03:52:12;17.83;;;11.60;;
39322;SDS011;25036;53.638;10.134;2024-02-21T03:53:13;17.95;;;11.40;;
39322;SDS011;25036;53.638;10.134;2024-02-21T03:54:13;18.90;;;11.83;;
39322;SDS011;25036;53.638;10.134;2024-02-21T03:55:13;17.70;;;11.88;;
39322;SDS011;25036;53.638;10.134;2024-02-21T03:56:13;17.60;;;11.33;;
39322;SDS011;25036;53.638;10.134;2024-02-21T03:57:13;15.70;;;10.50;;
39322;SDS011;25036;53.638;10.134;2024-02-21T03:58:14;18.80;;;11.15;;
39322;SDS011;25036;53.638;10.134;2024-02-21T03:59:14;16.37;;;11.17;;
39322;SDS011;25036;53.638;10.134;2024-02-21T04:00:14;16.42;;;11.10;;
39322;SDS011;25036;53.638;10.134;2024-02-21T04:01:15;14.65;;;10.10;;
39322;SDS011;25036;53.638;10.134;2024-02-21T04:02:15;16.05;;;10.32;;
39322;SDS011;25036;53.638;10.134;2024-02-21T04:03:16;15.90;;;10.80;;
39322;SDS011;25036;53.638;10.134;2024-02-21T04:04:17;15.93;;;10.43;;
39322;SDS011;25036;53.638;10.134;2024-02-21T04:05:17;15.80;;;10.07;;
39322;SDS011;25036;53.638;10.134;2024-02-21T04:06:17;13.45;;;11.00;;
39322;SDS011;25036;53.638;10.134;2024-02-21T04:07:18;15.57;;;10.60;;
39322;SDS011;25036;53.638;10.134;2024-02-21T04:08:19;14.10;;;9.67;;
39322;SDS011;25036;53.638;10.134;2024-02-21T04:09:19;13.35;;;9.93;;
39322;SDS011;25036;53.638;10.134;2024-02-21T04:10:19;13.82;;;9.70;;
39322;SDS011;25036;53.638;10.134;2024-02-21T04:11:19;16.63;;;10.13;;
39322;SDS011;25036;53.638;10.134;2024-02-21T04:12:19;14.30;;;10.37;;
39322;SDS011;25036;53.638;10.134;2024-02-21T04:13:19;14.00;;;10.37;;
39322;SDS011;25036;53.638;10.134;2024-02-21T04:14:20;17.10;;;10.73;;
39322;SDS011;25036;53.638;10.134;2024-02-21T04:15:20;17.60;;;10.00;;
39322;SDS011;25036;53.638;10.134;2024-02-21T04:16:20;18.60;;;10.37;;
39322;SDS011;25036;53.638;10.134;2024-02-21T04:17:20;14.73;;;10.73;;
39322;SDS011;25036;53.638;10.134;2024-02-21T04:18:20;14.90;;;10.33;;
39322;SDS011;25036;53.638;10.134;2024-02-21T04:19:20;16.27;;;10.17;;
39322;SDS011;25036;53.638;10.134;2024-02-21T04:20:20;15.53;;;10.03;;
39322;SDS011;25036;53.638;10.134;2024-02-21T04:21:21;13.90;;;10.40;;
39322;SDS011;25036;53.638;10.134;2024-02-21T04:22:21;17.23;;;10.67;;
39322;SDS011;25036;53.638;10.134;2024-02-21T04:23:21;13.73;;;9.83;;
39322;SDS011;25036;53.638;10.134;2024-02-21T04:24:21;13.77;;;9.50;;
39322;SDS011;25036;53.638;10.134;2024-02-21T04:25:21;15.70;;;9.43;;
39322;SDS011;25036;53.638;10.134;2024-02-21T04:26:21;15.40;;;9.87;;
39322;SDS011;25036;53.638;10.134;2024-02-21T04:27:21;13.53;;;10.20;;
39322;SDS011;25036;53.638;10.134;2024-02-21T04:28:21;14.27;;;9.88;;
39322;SDS011;25036;53.638;10.134;2024-02-21T04:29:22;15.93;;;10.67;;
39322;SDS011;25036;53.638;10.134;2024-02-21T04:30:22;13.13;;;10.27;;
39322;SDS011;25036;53.638;10.134;2024-02-21T04:31:22;13.23;;;9.83;;
39322;SDS011;25036;53.638;10.134;2024-02-21T04:32:22;15.83;;;10.23;;
39322;SDS011;25036;53.638;10.134;2024-02-21T04:33:22;15.60;;;9.57;;
39322;SDS011;25036;53.638;10.134;2024-02-21T04:34:22;12.30;;;9.37;;
39322;SDS011;25036;53.638;10.134;2024-02-21T04:35:23;12.05;;;9.07;;
39322;SDS011;25036;53.638;10.134;2024-02-21T04:36:23;12.33;;;9.47;;
39322;SDS011;25036;53.638;10.134;2024-02-21T04:37:23;11.98;;;9.18;;
39322;SDS011;25036;53.638;10.134;2024-02-21T04:38:24;12.05;;;9.10;;
39322;SDS011;25036;53.638;10.134;2024-02-21T04:39:24;12.25;;;9.05;;
39322;SDS011;25036;53.638;10.134;2024-02-21T04:40:24;13.30;;;9.87;;
39322;SDS011;25036;53.638;10.134;2024-02-21T04:41:24;15.53;;;10.03;;
39322;SDS011;25036;53.638;10.134;2024-02-21T04:42:25;13.03;;;9.27;;
39322;SDS011;25036;53.638;10.134;2024-02-21T04:43:25;10.87;;;8.73;;
39322;SDS011;25036;53.638;10.134;2024-02-21T04:44:25;12.53;;;9.17;;
39322;SDS011;25036;53.638;10.134;2024-02-21T04:45:25;11.20;;;8.18;;
39322;SDS011;25036;53.638;10.134;2024-02-21T04:46:25;14.40;;;9.43;;
39322;SDS011;25036;53.638;10.134;2024-02-21T04:47:25;13.73;;;8.67;;
39322;SDS011;25036;53.638;10.134;2024-02-21T04:48:26;14.27;;;8.40;;
39322;SDS011;25036;53.638;10.134;2024-02-21T04:49:26;10.00;;;7.83;;
39322;SDS011;25036;53.638;10.134;2024-02-21T04:50:26;12.00;;;8.40;;
39322;SDS011;25036;53.638;10.134;2024-02-21T04:51:27;12.40;;;8.80;;
39322;SDS011;25036;53.638;10.134;2024-02-21T04:52:27;10.70;;;7.67;;
39322;SDS011;25036;53.638;10.134;2024-02-21T04:53:27;15.53;;;8.13;;
39322;SDS011;25036;53.638;10.134;2024-02-21T04:54:27;10.03;;;8.10;;
39322;SDS011;25036;53.638;10.134;2024-02-21T04:55:27;10.87;;;7.90;;
39322;SDS011;25036;53.638;10.134;2024-02-21T04:56:28;9.93;;;8.23;;
39322;SDS011;25036;53.638;10.134;2024-02-21T04:57:28;10.47;;;7.40;;
39322;SDS011;25036;53.638;10.134;2024-02-21T04:58:28;9.32;;;7.45;;
39322;SDS011;25036;53.638;10.134;2024-02-21T04:59:28;12.27;;;7.63;;
39322;SDS011;25036;53.638;10.134;2024-02-21T05:00:29;9.25;;;7.28;;
39322;SDS011;25036;53.638;10.134;2024-02-21T05:01:30;10.77;;;7.32;;
39322;SDS011;25036;53.638;10.134;2024-02-21T05:02:30;10.25;;;7.47;;
39322;SDS011;25036;53.638;10.134;2024-02-21T05:03:30;8.57;;;6.93;;
39322;SDS011;25036;53.638;10.134;2024-02-21T05:04:30;11.85;;;7.15;;
39322;SDS011;25036;53.638;10.134;2024-02-21T05:05:30;10.73;;;7.20;;
39322;SDS011;25036;53.638;10.134;2024-02-21T05:06:31;8.17;;;6.67;;
39322;SDS011;25036;53.638;10.134;2024-02-21T05:07:31;9.80;;;6.63;;
39322;SDS011;25036;53.638;10.134;2024-02-21T05:08:31;8.13;;;6.27;;
39322;SDS011;25036;53.638;10.134;2024-02-21T05:09:31;6.80;;;6.00;;
39322;SDS011;25036;53.638;10.134;2024-02-21T05:10:31;9.83;;;6.23;;
39322;SDS011;25036;53.638;10.134;2024-02-21T05:11:31;8.02;;;5.95;;
39322;SDS011;25036;53.638;10.134;2024-02-21T05:12:32;9.20;;;6.00;;
39322;SDS011;25036;53.638;10.134;2024-02-21T05:13:32;6.77;;;5.30;;
39322;SDS011;25036;53.638;10.134;2024-02-21T05:14:32;7.27;;;5.37;;
39322;SDS011;25036;53.638;10.134;2024-02-21T05:15:32;7.03;;;5.50;;
39322;SDS011;25036;53.638;10.134;2024-02-21T05:16:32;6.80;;;5.53;;
39322;SDS011;25036;53.638;10.134;2024-02-21T05:17:32;6.78;;;5.13;;
39322;SDS011;25036;53.638;10.134;2024-02-21T05:18:33;8.13;;;5.60;;
39322;SDS011;25036;53.638;10.134;2024-02-21T05:19:33;5.72;;;5.00;;
39322;SDS011;25036;53.638;10.134;2024-02-21T05:20:33;7.10;;;4.70;;
39322;SDS011;25036;53.638;10.134;2024-02-21T05:21:33;5.82;;;5.00;;
39322;SDS011;25036;53.638;10.134;2024-02-21T05:22:33;7.13;;;5.37;;
39322;SDS011;25036;53.638;10.134;2024-02-21T05:23:33;4.97;;;4.43;;
39322;SDS011;25036;53.638;10.134;2024-02-21T05:24:33;7.93;;;4.97;;
39322;SDS011;25036;53.638;10.134;2024-02-21T05:25:34;5.53;;;4.63;;
39322;SDS011;25036;53.638;10.134;2024-02-21T05:26:34;6.73;;;4.80;;
39322;SDS011;25036;53.638;10.134;2024-02-21T05:27:34;5.50;;;4.87;;
39322;SDS011;25036;53.638;10.134;2024-02-21T05:28:35;7.70;;;5.15;;
39322;SDS011;25036;53.638;10.134;2024-02-21T05:29:35;5.37;;;4.70;;
39322;SDS011;25036;53.638;10.134;2024-02-21T05:30:35;6.57;;;4.53;;
39322;SDS011;25036;53.638;10.134;2024-02-21T05:31:43;4.90;;;4.45;;
39322;SDS011;25036;53.638;10.134;2024-02-21T05:32:54;6.63;;;4.57;;
39322;SDS011;25036;53.638;10.134;2024-02-21T05:33:54;5.40;;;4.27;;
39322;SDS011;25036;53.638;10.134;2024-02-21T05:34:54;5.27;;;4.03;;
39322;SDS011;25036;53.638;10.134;2024-02-21T05:35:54;4.55;;;4.07;;
39322;SDS011;25036;53.638;10.134;2024-02-21T05:36:55;4.47;;;4.00;;
39322;SDS011;25036;53.638;10.134;2024-02-21T05:37:55;4.85;;;4.30;;
39322;SDS011;25036;53.638;10.134;2024-02-21T05:38:55;6.43;;;4.30;;
39322;SDS011;25036;53.638;10.134;2024-02-21T05:39:55;5.93;;;3.93;;
39322;SDS011;25036;53.638;10.134;2024-02-21T05:40:55;5.57;;;4.37;;
39322;SDS011;25036;53.638;10.134;2024-02-21T05:41:56;5.70;;;4.50;;
39322;SDS011;25036;53.638;10.134;2024-02-21T05:42:56;6.63;;;4.07;;
39322;SDS011;25036;53.638;10.134;2024-02-21T05:43:57;5.57;;;4.25;;
39322;SDS011;25036;53.638;10.134;2024-02-21T05:44:57;5.40;;;4.00;;
39322;SDS011;25036;53.638;10.134;2024-02-21T05:45:57;4.47;;;3.70;;
39322;SDS011;25036;53.638;10.134;2024-02-21T05:46:58;4.23;;;3.43;;
39322;SDS011;25036;53.638;10.134;2024-02-21T05:47:58;4.63;;;4.10;;
39322;SDS011;25036;53.638;10.134;2024-02-21T05:48:58;4.53;;;4.07;;
39322;SDS011;25036;53.638;10.134;2024-02-21T05:49:58;4.27;;;3.70;;
39322;SDS011;25036;53.638;10.134;2024-02-21T05:50:58;4.43;;;3.67;;
39322;SDS011;25036;53.638;10.134;2024-02-21T05:52:01;5.43;;;3.78;;